Time;durP1;ratioP1;P1;durP2;ratioP2;P2;SDS_P1;SDS_P2;PMS_P1;PMS_P2;Temp;Humidity;BMP_temperature;BMP_pressure;BME280_temperature;BME280_humidity;BME280_pressure;Samples;Min_cycle;Max_cycle;Signal;HPM_P1;HPM_P2
2022/08/15 00:00:54;;;;;;;10.27;8.10;;;22.60;99.90;;;;;;4975878;28;20042;-72
2022/08/15 00:03:22;;;;;;;12.40;8.85;;;22.50;99.90;;;;;;4992867;28;20039;-72
2022/08/15 00:05:48;;;;;;;10.00;8.32;;;22.50;99.90;;;;;;4992714;28;20053;-72
2022/08/15 00:08:14;;;;;;;12.95;9.05;;;22.50;99.90;;;;;;4992776;28;20050;-72
2022/08/15 00:10:44;;;;;;;11.98;9.02;;;22.40;99.90;;;;;;4993098;28;20181;-72
2022/08/15 00:13:19;;;;;;;10.90;7.88;;;22.40;99.90;;;;;;4993506;28;20069;-72
2022/08/15 00:15:47;;;;;;;10.77;8.65;;;22.40;99.90;;;;;;4993172;28;20190;-72
2022/08/15 00:18:14;;;;;;;11.55;9.00;;;22.30;99.90;;;;;;4992602;28;20078;-73
2022/08/15 00:20:40;;;;;;;9.88;6.65;;;22.20;99.90;;;;;;4992972;28;20050;-73
2022/08/15 00:23:10;;;;;;;11.85;7.72;;;22.10;99.90;;;;;;4992634;28;20050;-72
2022/08/15 00:25:40;;;;;;;14.63;9.20;;;22.10;99.90;;;;;;4993202;28;20049;-73
2022/08/15 00:28:07;;;;;;;8.50;7.70;;;22.00;99.90;;;;;;4992969;28;20046;-73
2022/08/15 00:30:34;;;;;;;12.30;8.98;;;22.00;99.90;;;;;;4992509;28;20047;-72
2022/08/15 00:33:01;;;;;;;9.05;7.95;;;21.30;99.90;;;;;;4991519;28;20368;-71
2022/08/15 00:35:36;;;;;;;12.18;8.77;;;21.90;99.90;;;;;;4992200;28;20048;-70
2022/08/15 00:38:08;;;;;;;12.20;9.13;;;21.90;99.90;;;;;;4992491;28;20074;-71
2022/08/15 00:41:39;;;;;;;8.60;7.67;;;21.90;99.90;;;;;;4991900;28;20046;-70
2022/08/15 00:43:23;;;;;;;12.65;9.40;;;21.90;99.90;;;;;;4994427;28;20296;-72
2022/08/15 00:45:50;;;;;;;10.15;8.55;;;21.90;99.90;;;;;;4995540;28;20125;-71
2022/08/15 00:51:01;;;;;;;9.65;8.25;;;22.00;99.90;;;;;;4995649;28;20050;-71
2022/08/15 00:53:27;;;;;;;12.70;9.40;;;22.00;99.90;;;;;;4995109;28;20493;-71
2022/08/15 00:55:53;;;;;;;8.50;7.63;;;22.00;99.90;;;;;;4995663;28;20075;-70
2022/08/15 00:58:20;;;;;;;8.80;7.88;;;22.00;99.90;;;;;;4995283;28;20185;-71
2022/08/15 01:00:48;;;;;;;13.75;10.20;;;21.90;99.90;;;;;;4977933;28;20521;-72
2022/08/15 01:03:21;;;;;;;15.43;10.05;;;22.00;99.90;;;;;;4995587;28;20129;-70
2022/08/15 01:05:49;;;;;;;14.85;11.02;;;22.00;99.90;;;;;;4995712;28;20038;-71
2022/08/15 01:08:17;;;;;;;11.70;9.48;;;21.90;99.90;;;;;;4995231;28;20061;-70
2022/08/15 01:10:44;;;;;;;10.82;9.45;;;21.90;99.90;;;;;;4995345;28;20164;-71
2022/08/15 01:13:10;;;;;;;13.27;9.65;;;21.90;99.90;;;;;;4995004;28;20054;-72
2022/08/15 01:15:37;;;;;;;15.73;11.18;;;21.80;99.90;;;;;;4994003;28;20038;-72
2022/08/15 01:18:03;;;;;;;13.30;10.63;;;21.80;99.90;;;;;;4995809;28;20057;-71
2022/08/15 01:20:32;;;;;;;17.85;11.40;;;21.70;99.90;;;;;;4995465;28;20129;-71
2022/08/15 01:23:09;;;;;;;13.13;10.55;;;21.70;99.90;;;;;;4994880;28;20529;-71
2022/08/15 01:25:43;;;;;;;12.02;10.07;;;21.70;99.90;;;;;;4995410;28;20054;-70
2022/08/15 01:28:20;;;;;;;13.57;10.52;;;21.70;99.90;;;;;;4978428;28;20050;-71
2022/08/15 01:30:54;;;;;;;13.48;10.43;;;21.50;99.90;;;;;;4995154;28;20125;-71
2022/08/15 01:33:21;;;;;;;15.30;11.63;;;21.60;99.90;;;;;;4994909;28;20050;-71
2022/08/15 01:35:48;;;;;;;15.27;12.05;;;21.60;99.90;;;;;;4977616;28;20416;-71
2022/08/15 01:38:35;;;;;;;14.10;10.70;;;21.60;99.90;;;;;;4977716;28;20045;-71
2022/08/15 01:41:19;;;;;;;16.13;11.25;;;21.50;99.90;;;;;;4995222;28;20047;-70
2022/08/15 01:44:04;;;;;;;13.85;10.50;;;21.50;99.90;;;;;;4995197;28;20053;-71
2022/08/15 01:46:37;;;;;;;15.82;12.35;;;21.60;99.90;;;;;;4994925;28;20046;-71
2022/08/15 01:49:10;;;;;;;12.43;9.52;;;21.60;99.90;;;;;;4995373;28;20050;-71
2022/08/15 01:51:36;;;;;;;;;;;21.50;99.90;;;;;;4995215;28;20052;-71
2022/08/15 01:54:07;;;;;;;13.15;10.10;;;21.50;99.90;;;;;;4994262;28;20470;-71
2022/08/15 01:56:45;;;;;;;13.15;10.77;;;21.50;99.90;;;;;;4994254;28;20398;-70
2022/08/15 01:59:17;;;;;;;12.02;10.75;;;21.50;99.90;;;;;;4994634;28;20082;-71
2022/08/15 02:01:43;;;;;;;;;;;21.60;99.90;;;;;;4995220;28;20436;-70
2022/08/15 02:04:12;;;;;;;12.15;9.68;;;21.60;99.90;;;;;;4994287;28;20360;-71
2022/08/15 02:06:38;;;;;;;17.02;11.90;;;21.60;99.90;;;;;;4994345;28;20046;-71
2022/08/15 02:09:07;;;;;;;12.98;10.25;;;21.70;99.90;;;;;;4994717;28;20046;-71
2022/08/15 02:11:33;;;;;;;11.20;9.32;;;21.80;99.90;;;;;;4994438;28;20046;-71
2022/08/15 02:13:59;;;;;;;16.13;10.73;;;21.70;99.90;;;;;;4994399;28;20097;-71
2022/08/15 02:16:29;;;;;;;15.02;9.98;;;21.70;99.90;;;;;;4993984;28;20050;-71
2022/08/15 02:18:56;;;;;;;14.63;10.75;;;21.80;99.90;;;;;;4994381;28;20112;-70
2022/08/15 02:21:22;;;;;;;11.52;9.88;;;21.80;99.90;;;;;;4994117;28;20061;-71
2022/08/15 02:23:48;;;;;;;14.38;11.20;;;21.80;99.90;;;;;;4993992;28;20085;-71
2022/08/15 02:26:14;;;;;;;14.50;11.52;;;21.70;99.90;;;;;;4994385;28;20455;-71
2022/08/15 02:28:42;;;;;;;13.43;10.82;;;21.60;99.90;;;;;;4976924;28;20518;-72
2022/08/15 02:31:10;;;;;;;12.60;10.63;;;21.60;99.90;;;;;;4977573;28;20058;-71
2022/08/15 02:33:37;;;;;;;13.68;10.40;;;21.60;99.90;;;;;;4993926;28;20109;-71
2022/08/15 02:36:03;;;;;;;14.52;10.25;;;21.60;99.90;;;;;;4993464;28;20092;-71
2022/08/15 02:38:31;;;;;;;19.90;11.27;;;21.50;99.90;;;;;;4993794;28;20050;-71
2022/08/15 02:40:58;;;;;;;11.65;10.23;;;21.60;99.90;;;;;;4993616;28;20046;-71
2022/08/15 02:43:23;;;;;;;17.50;11.20;;;21.50;99.90;;;;;;4993701;28;20053;-72
2022/08/15 02:45:50;;;;;;;12.43;9.25;;;21.50;99.90;;;;;;4993604;28;20082;-71
2022/08/15 02:48:16;;;;;;;15.18;10.75;;;21.50;99.90;;;;;;4994036;28;20049;-72
2022/08/15 02:50:42;;;;;;;12.70;11.35;;;21.50;99.90;;;;;;4993631;28;20429;-72
2022/08/15 02:53:13;;;;;;;14.55;11.68;;;21.50;99.90;;;;;;4976478;28;20460;-72
2022/08/15 02:55:46;;;;;;;15.25;10.70;;;21.50;99.90;;;;;;4993610;28;20085;-73
2022/08/15 02:58:13;;;;;;;12.90;10.60;;;21.50;99.90;;;;;;4993205;28;20043;-72
2022/08/15 03:00:41;;;;;;;13.52;10.27;;;21.50;99.90;;;;;;4992982;28;20491;-71
2022/08/15 03:03:10;;;;;;;11.52;9.52;;;21.50;99.90;;;;;;4993379;28;20050;-72
2022/08/15 03:05:39;;;;;;;11.85;9.90;;;21.60;99.90;;;;;;4992702;28;20506;-72
2022/08/15 03:08:05;;;;;;;14.27;11.15;;;21.50;99.90;;;;;;4993587;28;20082;-72
2022/08/15 03:10:31;;;;;;;12.55;10.48;;;21.60;99.90;;;;;;4993883;28;20078;-72
2022/08/15 03:13:00;;;;;;;15.45;11.35;;;21.50;99.90;;;;;;4993138;28;20491;-72
2022/08/15 03:15:31;;;;;;;12.65;10.18;;;21.50;99.90;;;;;;4993146;28;20042;-72
2022/08/15 03:17:59;;;;;;;11.95;10.50;;;21.50;99.90;;;;;;4993416;28;20121;-72
2022/08/15 03:20:25;;;;;;;12.50;10.52;;;21.50;99.90;;;;;;4993166;28;20089;-71
2022/08/15 03:22:53;;;;;;;11.13;8.95;;;21.40;99.90;;;;;;4992829;28;20062;-73
2022/08/15 03:25:21;;;;;;;14.27;11.10;;;21.30;99.90;;;;;;4993145;28;20047;-71
2022/08/15 03:27:47;;;;;;;13.68;9.80;;;21.30;99.90;;;;;;4993065;28;20054;-72
2022/08/15 03:30:14;;;;;;;15.63;10.27;;;21.30;99.90;;;;;;4992995;28;20093;-72
2022/08/15 03:32:50;;;;;;;15.70;10.50;;;21.30;99.90;;;;;;4993501;28;20091;-72
2022/08/15 03:35:17;;;;;;;11.68;9.73;;;21.20;99.90;;;;;;4975682;28;20398;-72
2022/08/15 03:37:43;;;;;;;13.18;9.75;;;21.10;99.90;;;;;;4992969;28;20056;-73
2022/08/15 03:40:10;;;;;;;14.00;10.13;;;21.10;99.90;;;;;;4993035;28;20046;-71
2022/08/15 03:42:36;;;;;;;12.85;10.35;;;21.10;99.90;;;;;;4975568;28;20503;-72
2022/08/15 03:45:12;;;;;;;11.30;9.00;;;21.00;99.90;;;;;;4993284;28;20125;-72
2022/08/15 03:47:38;;;;;;;14.25;10.50;;;21.00;99.90;;;;;;4992833;28;20046;-72
2022/08/15 03:50:05;;;;;;;14.13;9.95;;;21.00;99.90;;;;;;4992505;28;20046;-72
2022/08/15 03:52:32;;;;;;;12.70;10.18;;;21.00;99.90;;;;;;4992948;28;20053;-73
2022/08/15 03:55:03;;;;;;;10.95;9.80;;;21.00;99.90;;;;;;4993257;28;20046;-72
2022/08/15 03:57:29;;;;;;;11.57;9.10;;;21.00;99.90;;;;;;4976006;28;20112;-73
2022/08/15 03:59:55;;;;;;;11.40;9.82;;;21.00;99.90;;;;;;4993108;28;20435;-72
2022/08/15 04:02:24;;;;;;;14.75;11.57;;;21.00;99.90;;;;;;4992545;28;20506;-72
2022/08/15 04:04:50;;;;;;;16.20;11.38;;;20.90;99.90;;;;;;4975512;28;20108;-72
2022/08/15 04:07:16;;;;;;;13.85;11.85;;;20.80;99.90;;;;;;4992618;28;20133;-71
2022/08/15 04:09:43;;;;;;;16.23;11.30;;;20.80;99.90;;;;;;4992312;28;20121;-72
2022/08/15 04:12:09;;;;;;;11.38;9.73;;;20.80;99.90;;;;;;4992353;28;20050;-71
2022/08/15 04:14:35;;;;;;;15.63;10.43;;;20.80;99.90;;;;;;4992293;28;20054;-72
2022/08/15 04:17:03;;;;;;;15.13;11.43;;;20.80;99.90;;;;;;4992648;28;20077;-72
2022/08/15 04:19:29;;;;;;;14.02;12.00;;;20.80;99.90;;;;;;4996427;28;20537;-72
2022/08/15 04:22:02;;;;;;;15.65;10.35;;;20.70;99.90;;;;;;4978687;28;20046;-71
2022/08/15 04:24:28;;;;;;;11.98;9.82;;;20.60;99.90;;;;;;4996848;28;20065;-73
2022/08/15 04:26:54;;;;;;;15.68;11.20;;;20.60;99.90;;;;;;4996546;28;20528;-71
2022/08/15 04:29:19;;;;;;;11.68;9.45;;;20.60;99.90;;;;;;4995981;28;20042;-71
2022/08/15 04:31:45;;;;;;;14.85;10.73;;;20.60;99.90;;;;;;4996278;28;20046;-72
2022/08/15 04:34:11;;;;;;;14.77;11.85;;;20.60;99.90;;;;;;4996003;28;20058;-72
2022/08/15 04:36:36;;;;;;;15.50;11.38;;;20.70;99.90;;;;;;4995761;28;20046;-71
2022/08/15 04:39:03;;;;;;;14.15;11.23;;;20.60;99.90;;;;;;4995984;28;20490;-72
2022/08/15 04:41:30;;;;;;;12.50;10.27;;;20.70;99.90;;;;;;4996136;28;20174;-71
2022/08/15 04:43:55;;;;;;;18.88;13.95;;;20.70;99.90;;;;;;4995955;28;20476;-71
2022/08/15 04:46:21;;;;;;;22.60;14.00;;;20.70;99.90;;;;;;4996295;28;20165;-72
2022/08/15 04:48:47;;;;;;;15.20;11.90;;;20.60;99.90;;;;;;4996235;28;20050;-72
2022/08/15 04:51:12;;;;;;;18.35;12.73;;;20.60;99.90;;;;;;4995465;28;20050;-72
2022/08/15 04:53:39;;;;;;;17.52;13.48;;;20.50;99.90;;;;;;4995471;28;20050;-71
2022/08/15 04:56:06;;;;;;;15.30;12.60;;;20.50;99.90;;;;;;4995872;28;20057;-71
2022/08/15 04:58:33;;;;;;;15.68;12.35;;;20.50;99.90;;;;;;4995666;28;20451;-72
2022/08/15 05:01:02;;;;;;;19.83;12.93;;;20.50;99.90;;;;;;4978758;28;20054;-72
2022/08/15 05:03:28;;;;;;;15.70;12.15;;;20.50;99.90;;;;;;4977999;28;20065;-73
2022/08/15 05:06:06;;;;;;;16.83;13.10;;;20.60;99.90;;;;;;4995482;28;20046;-73
2022/08/15 05:08:34;;;;;;;19.00;13.63;;;20.60;99.90;;;;;;4995540;28;20054;-72
2022/08/15 05:11:12;;;;;;;18.75;13.38;;;20.60;99.90;;;;;;4995616;28;20050;-73
2022/08/15 05:13:40;;;;;;;17.92;12.52;;;20.70;99.90;;;;;;4995309;28;20042;-72
2022/08/15 05:16:07;;;;;;;17.33;13.93;;;20.70;99.90;;;;;;4995625;28;20057;-72
2022/08/15 05:18:36;;;;;;;12.30;9.82;;;20.80;99.90;;;;;;4995404;28;20042;-72
2022/08/15 05:21:02;;;;;;;17.70;12.25;;;20.80;99.90;;;;;;4995386;28;20050;-72
2022/08/15 05:23:28;;;;;;;15.43;10.98;;;20.90;99.90;;;;;;4977588;28;20066;-72
2022/08/15 05:25:58;;;;;;;18.05;13.65;;;21.00;99.90;;;;;;4995308;28;20194;-73
2022/08/15 05:28:24;;;;;;;18.95;13.48;;;21.10;99.90;;;;;;4994994;28;20093;-72
2022/08/15 05:30:52;;;;;;;17.77;14.32;;;21.20;99.90;;;;;;4977193;28;20432;-73
2022/08/15 05:33:25;;;;;;;18.35;13.57;;;21.20;99.90;;;;;;4976965;28;20046;-72
2022/08/15 05:35:57;;;;;;;17.77;13.70;;;21.20;99.90;;;;;;4994881;28;20081;-72
2022/08/15 05:38:40;;;;;;;19.02;16.55;;;21.30;99.90;;;;;;4995283;28;20129;-73
2022/08/15 05:41:47;;;;;;;24.90;14.82;;;21.30;99.90;;;;;;4994885;28;20133;-71
2022/08/15 05:44:21;;;;;;;15.68;13.68;;;21.40;99.90;;;;;;4994308;28;20462;-72
2022/08/15 05:47:01;;;;;;;17.88;13.68;;;21.40;99.90;;;;;;4994797;28;20038;-72
2022/08/15 05:49:35;;;;;;;19.10;13.45;;;21.50;99.90;;;;;;4995003;28;20133;-73
2022/08/15 05:52:23;;;;;;;22.00;14.50;;;21.50;99.90;;;;;;4994819;28;20042;-73
2022/08/15 05:55:16;;;;;;;17.30;14.07;;;21.50;99.90;;;;;;4994454;28;20052;-73
2022/08/15 05:58:00;;;;;;;17.65;14.55;;;21.60;99.90;;;;;;4994556;28;20046;-71
2022/08/15 06:00:27;;;;;;;14.48;12.00;;;21.60;99.90;;;;;;4994462;28;20061;-72
2022/08/15 06:03:09;;;;;;;18.98;14.15;;;21.70;99.90;;;;;;4994148;28;20085;-72
2022/08/15 06:05:45;;;;;;;16.33;13.85;;;21.70;99.90;;;;;;4994068;28;20117;-73
2022/08/15 06:08:17;;;;;;;21.20;14.73;;;21.80;99.90;;;;;;4994295;28;20050;-75
2022/08/15 06:10:49;;;;;;;19.63;14.98;;;21.80;99.90;;;;;;4994212;28;20065;-76
2022/08/15 06:13:28;;;;;;;18.95;13.85;;;21.80;99.90;;;;;;4994360;28;20124;-74
2022/08/15 06:16:02;;;;;;;16.48;13.13;;;21.90;99.90;;;;;;4994323;28;20042;-72
2022/08/15 06:18:30;;;;;;;18.92;13.55;;;22.00;99.90;;;;;;4994457;28;20046;-74
2022/08/15 06:21:16;;;;;;;20.92;14.55;;;22.20;99.90;;;;;;4993812;28;20042;-72
2022/08/15 06:23:57;;;;;;;17.45;13.75;;;22.30;99.90;;;;;;4993997;28;20069;-71
2022/08/15 06:26:42;;;;;;;17.77;13.10;;;22.30;99.90;;;;;;4993832;28;20572;-71
2022/08/15 06:29:10;;;;;;;21.38;15.90;;;22.40;99.90;;;;;;4993883;28;20054;-72
2022/08/15 06:31:40;;;;;;;17.02;14.25;;;22.30;99.90;;;;;;4993823;28;20043;-71
2022/08/15 06:34:21;;;;;;;19.30;13.35;;;22.30;99.90;;;;;;4994280;28;20046;-71
2022/08/15 06:36:59;;;;;;;16.80;13.43;;;22.40;99.90;;;;;;4976203;28;20061;-72
2022/08/15 06:39:35;;;;;;;19.20;14.23;;;22.50;99.90;;;;;;4993914;28;20050;-72
2022/08/15 06:42:16;;;;;;;19.27;13.95;;;22.60;99.90;;;;;;4993682;28;20123;-71
2022/08/15 06:44:42;;;;;;;18.48;14.38;;;22.70;99.90;;;;;;4993554;28;20448;-70
2022/08/15 06:47:09;;;;;;;21.00;14.95;;;22.90;99.90;;;;;;4993919;28;20050;-71
2022/08/15 06:49:40;;;;;;;21.63;15.45;;;22.90;99.90;;;;;;4993378;28;20103;-71
2022/08/15 06:52:07;;;;;;;20.30;14.00;;;23.00;99.90;;;;;;4993602;28;20424;-71
2022/08/15 06:54:35;;;;;;;22.77;15.13;;;23.00;99.90;;;;;;4993371;28;20042;-71
2022/08/15 06:57:09;;;;;;;21.38;15.00;;;23.20;99.90;;;;;;4993279;28;20050;-71
2022/08/15 06:59:52;;;;;;;19.33;14.80;;;23.30;99.90;;;;;;4976466;28;20050;-71
2022/08/15 07:02:36;;;;;;;19.55;14.60;;;23.40;99.90;;;;;;4993627;28;20046;-70
2022/08/15 07:05:07;;;;;;;19.95;14.25;;;24.00;99.90;;;;;;4993260;28;20057;-71
2022/08/15 07:07:39;;;;;;;22.73;13.60;;;24.10;99.90;;;;;;4976300;28;20505;-71
2022/08/15 07:10:34;;;;;;;17.98;13.80;;;24.00;99.90;;;;;;4993465;28;20042;-71
2022/08/15 07:13:05;;;;;;;19.55;15.05;;;23.90;99.90;;;;;;4975290;28;20383;-71
2022/08/15 07:15:56;;;;;;;17.90;14.35;;;23.80;99.90;;;;;;4993467;28;20047;-71
2022/08/15 07:18:31;;;;;;;19.25;13.70;;;23.80;99.90;;;;;;4993228;28;20054;-71
2022/08/15 07:21:02;;;;;;;18.35;13.82;;;23.90;99.90;;;;;;4993081;28;20046;-71
2022/08/15 07:23:30;;;;;;;21.50;13.95;;;24.10;99.90;;;;;;4992613;28;20054;-71
2022/08/15 07:26:02;;;;;;;16.55;12.75;;;24.40;99.80;;;;;;4993088;28;20043;-71
2022/08/15 07:28:30;;;;;;;17.83;13.13;;;24.60;99.30;;;;;;4993311;28;20050;-70
2022/08/15 07:31:11;;;;;;;18.77;13.77;;;24.60;99.00;;;;;;4992940;28;20077;-70
2022/08/15 07:33:46;;;;;;;16.88;12.52;;;24.60;98.60;;;;;;4976127;28;20046;-71
2022/08/15 07:36:26;;;;;;;16.25;12.55;;;24.50;98.70;;;;;;4992815;28;20034;-71
2022/08/15 07:38:54;;;;;;;18.02;12.45;;;24.40;98.50;;;;;;4993461;28;20098;-71
2022/08/15 07:41:23;;;;;;;15.27;12.05;;;24.40;98.70;;;;;;4992978;28;20481;-71
2022/08/15 07:43:51;;;;;;;15.05;12.13;;;24.60;98.70;;;;;;4992936;28;20046;-71
2022/08/15 07:46:21;;;;;;;15.02;12.75;;;24.70;98.50;;;;;;4992954;28;20050;-71
2022/08/15 07:49:02;;;;;;;17.90;11.68;;;25.10;98.20;;;;;;4993095;28;20098;-71
2022/08/15 07:51:39;;;;;;;14.27;11.68;;;25.30;97.60;;;;;;4993482;28;20427;-71
2022/08/15 07:54:24;;;;;;;15.82;11.68;;;25.50;97.80;;;;;;4981628;28;20054;-71
2022/08/15 07:56:54;;;;;;;14.70;12.13;;;25.70;97.10;;;;;;4999187;28;20038;-71
2022/08/15 07:59:24;;;;;;;14.80;10.55;;;26.30;97.00;;;;;;4999126;28;20039;-71
2022/08/15 08:01:54;;;;;;;12.80;10.25;;;27.20;96.20;;;;;;4999342;28;20129;-71
2022/08/15 08:04:27;;;;;;;13.52;10.27;;;28.10;95.50;;;;;;4999325;28;20045;-71
2022/08/15 08:07:20;;;;;;;14.15;8.25;;;29.10;93.90;;;;;;4999369;28;20050;-71
2022/08/15 08:09:47;;;;;;;;;;;29.80;92.70;;;;;;4999538;28;20058;-71
2022/08/15 08:12:32;;;;;;;9.23;7.78;;;30.00;91.20;;;;;;4998804;28;20380;-71
2022/08/15 08:15:20;;;;;;;8.73;7.65;;;29.90;90.30;;;;;;4998577;28;20104;-71
2022/08/15 08:18:02;;;;;;;9.10;7.53;;;29.60;90.90;;;;;;4998802;28;20084;-71
2022/08/15 08:20:29;;;;;;;11.52;8.68;;;29.50;90.30;;;;;;4998571;28;20371;-72
2022/08/15 08:23:21;;;;;;;12.40;7.78;;;29.70;90.50;;;;;;4998943;28;20069;-72
2022/08/15 08:26:15;;;;;;;11.27;7.93;;;30.10;89.70;;;;;;4999369;28;20043;-73
2022/08/15 08:29:22;;;;;;;11.88;8.60;;;30.20;84.90;;;;;;4998430;28;20049;-72
2022/08/15 08:32:01;;;;;;;7.65;6.95;;;30.00;85.90;;;;;;4919216;29;20067;-73
2022/08/15 08:34:40;;;;;;;8.73;7.15;;;30.00;87.20;;;;;;4989280;28;20448;-73
2022/08/15 08:37:31;;;;;;;8.20;7.35;;;29.80;85.70;;;;;;4998329;28;20050;-72
2022/08/15 08:43:14;;;;;;;10.32;7.63;;;28.90;84.90;;;;;;4998206;28;20054;-72
2022/08/15 08:46:02;;;;;;;8.63;7.30;;;28.80;86.10;;;;;;4998541;28;20061;-73
2022/08/15 08:48:36;;;;;;;9.10;6.68;;;28.80;86.30;;;;;;4998514;28;20053;-73
2022/08/15 08:51:14;;;;;;;10.82;5.93;;;28.90;86.50;;;;;;4997290;28;20112;-72
2022/08/15 08:53:52;;;;;;;6.47;5.88;;;29.70;85.40;;;;;;4997723;28;20078;-72
2022/08/15 08:56:26;;;;;;;8.32;5.35;;;31.00;83.60;;;;;;4998241;28;20030;-73
2022/08/15 08:59:02;;;;;;;8.93;6.68;;;32.20;83.00;;;;;;4998083;28;20046;-72
2022/08/15 09:01:29;;;;;;;10.60;7.05;;;33.10;81.00;;;;;;4997864;28;20484;-73
2022/08/15 09:04:03;;;;;;;6.55;5.68;;;33.30;79.20;;;;;;4996793;28;20077;-73
2022/08/15 09:06:36;;;;;;;5.88;5.38;;;33.20;78.10;;;;;;4994904;28;20050;-73
2022/08/15 09:09:14;;;;;;;6.80;5.93;;;33.00;77.90;;;;;;4978346;28;20050;-73
2022/08/15 09:11:47;;;;;;;6.45;5.85;;;32.40;77.20;;;;;;4995586;28;20080;-73
2022/08/15 09:14:17;;;;;;;6.20;5.60;;;32.10;76.60;;;;;;4977880;28;20043;-73
2022/08/15 09:16:45;;;;;;;8.45;6.85;;;31.70;77.00;;;;;;4977500;28;20121;-73
2022/08/15 09:19:24;;;;;;;8.00;6.43;;;31.30;77.20;;;;;;4977783;28;20116;-73
2022/08/15 09:21:51;;;;;;;6.68;5.97;;;31.00;76.60;;;;;;4994647;28;20082;-73
2022/08/15 09:24:19;;;;;;;6.80;6.03;;;31.60;78.00;;;;;;4994602;28;20061;-72
2022/08/15 09:26:59;;;;;;;9.05;6.85;;;32.50;76.80;;;;;;4994888;28;20489;-73
2022/08/15 09:29:43;;;;;;;6.88;6.35;;;33.20;76.00;;;;;;4995121;28;20050;-73
2022/08/15 09:32:27;;;;;;;8.02;6.85;;;33.50;76.20;;;;;;4994826;28;20129;-73
2022/08/15 09:35:05;;;;;;;7.18;6.15;;;33.00;75.40;;;;;;4994799;28;20053;-74
2022/08/15 09:37:48;;;;;;;10.57;7.00;;;32.80;74.50;;;;;;4994561;28;20046;-76
2022/08/15 09:40:49;;;;;;;6.93;6.22;;;33.00;74.90;;;;;;4994760;28;20052;-73
2022/08/15 09:43:33;;;;;;;7.25;6.38;;;33.90;73.70;;;;;;4994262;28;20389;-75
2022/08/15 09:46:26;;;;;;;7.03;6.32;;;34.40;74.00;;;;;;4977525;28;20405;-74
2022/08/15 09:49:13;;;;;;;15.85;6.57;;;34.40;72.50;;;;;;4994449;28;20062;-76
2022/08/15 09:51:58;;;;;;;7.43;6.38;;;34.80;72.50;;;;;;4994435;28;20046;-75
2022/08/15 09:54:28;;;;;;;9.00;6.78;;;34.90;72.30;;;;;;4977396;28;20366;-74
2022/08/15 09:57:19;;;;;;;8.23;5.95;;;35.20;72.60;;;;;;4994067;28;20395;-74
2022/08/15 09:59:51;;;;;;;7.15;6.10;;;34.90;69.50;;;;;;4994137;28;20429;-74
2022/08/15 10:02:19;;;;;;;7.07;6.38;;;34.70;69.00;;;;;;4994277;28;20050;-75
2022/08/15 10:04:47;;;;;;;9.70;6.72;;;34.30;70.80;;;;;;4976714;28;20054;-74
2022/08/15 10:07:13;;;;;;;8.32;6.03;;;34.30;71.00;;;;;;4993870;28;20046;-76
2022/08/15 10:10:04;;;;;;;6.43;5.82;;;34.20;70.50;;;;;;4994272;28;20046;-74
2022/08/15 10:12:32;;;;;;;7.38;6.25;;;34.00;69.80;;;;;;4993846;28;20051;-77
2022/08/15 10:15:24;;;;;;;7.00;6.38;;;33.60;69.90;;;;;;4992447;28;20121;-77
2022/08/15 10:17:52;;;;;;;7.38;5.85;;;33.30;70.10;;;;;;4983799;28;20062;-80
2022/08/15 10:20:26;;;;;;;13.05;8.18;;;33.10;70.60;;;;;;4994432;28;20471;-75
2022/08/15 10:23:08;;;;;;;10.93;7.80;;;33.00;71.20;;;;;;4993964;28;20129;-75
2022/08/15 10:25:40;;;;;;;9.80;6.88;;;32.80;71.10;;;;;;4993790;28;20505;-74
2022/08/15 10:28:23;;;;;;;13.80;6.70;;;32.60;72.20;;;;;;4993634;28;20525;-77
2022/08/15 10:30:58;;;;;;;9.75;7.25;;;32.50;72.90;;;;;;4993816;28;20089;-74
2022/08/15 10:33:32;;;;;;;7.15;6.40;;;32.30;71.40;;;;;;4994162;28;20046;-75
2022/08/15 10:36:09;;;;;;;9.48;6.80;;;32.10;71.70;;;;;;4993789;28;20054;-75
2022/08/15 10:38:36;;;;;;;8.55;6.88;;;32.20;72.70;;;;;;4993618;28;20089;-76
2022/08/15 10:41:31;;;;;;;7.50;6.75;;;32.30;72.30;;;;;;4993578;28;20549;-75
2022/08/15 10:44:15;;;;;;;8.43;6.68;;;32.30;72.30;;;;;;4993571;28;20085;-75
2022/08/15 10:46:53;;;;;;;7.07;6.35;;;32.40;72.20;;;;;;4993612;28;20075;-77
2022/08/15 10:49:45;;;;;;;8.50;7.28;;;32.40;71.80;;;;;;4994058;28;20073;-74
2022/08/15 10:52:10;;;;;;;7.05;6.40;;;32.30;71.00;;;;;;4993804;28;20100;-77
2022/08/15 10:55:27;;;;;;;7.93;7.13;;;32.10;71.70;;;;;;4993686;28;20142;-75
2022/08/15 10:58:10;;;;;;;8.93;7.63;;;32.10;72.10;;;;;;4913936;29;20052;-74
2022/08/15 11:01:14;;;;;;;14.18;8.07;;;31.60;72.60;;;;;;4986656;28;20436;-73
2022/08/15 11:03:42;;;;;;;8.65;7.85;;;31.30;73.20;;;;;;4913634;29;20044;-74
2022/08/15 11:06:14;;;;;;;10.30;7.85;;;30.90;73.80;;;;;;4976847;28;20058;-73
2022/08/15 11:09:03;;;;;;;8.18;6.72;;;30.80;73.70;;;;;;4992845;28;20101;-74
2022/08/15 11:11:33;;;;;;;13.13;9.85;;;30.40;74.30;;;;;;4992591;28;20073;-76
2022/08/15 11:14:08;;;;;;;9.20;8.05;;;30.00;75.10;;;;;;4992747;28;20050;-76
2022/08/15 11:16:44;;;;;;;12.50;9.48;;;29.80;76.20;;;;;;4992714;28;20085;-75
2022/08/15 11:19:36;;;;;;;11.25;9.57;;;29.50;77.30;;;;;;4992742;28;20562;-77
2022/08/15 11:22:06;;;;;;;13.60;10.65;;;29.30;78.20;;;;;;4992691;28;20050;-78
2022/08/15 11:24:38;;;;;;;15.85;10.20;;;29.00;78.70;;;;;;4992511;28;20050;-77
2022/08/15 11:27:17;;;;;;;13.68;10.45;;;28.80;80.40;;;;;;4991723;28;20065;-75
2022/08/15 11:29:44;;;;;;;13.98;10.30;;;28.60;83.30;;;;;;4975412;28;20090;-76
2022/08/15 11:32:24;;;;;;;13.07;10.10;;;28.30;85.70;;;;;;4992339;28;20104;-77
2022/08/15 11:34:51;;;;;;;14.75;9.85;;;28.10;88.50;;;;;;4992315;28;20491;-75
2022/08/15 11:37:29;;;;;;;14.10;11.73;;;28.00;88.00;;;;;;4992381;28;20058;-75
2022/08/15 11:39:58;;;;;;;13.73;10.45;;;28.10;91.20;;;;;;4992540;28;20190;-75
2022/08/15 11:42:27;;;;;;;14.35;10.88;;;28.00;90.70;;;;;;4992701;28;20552;-75
2022/08/15 11:44:59;;;;;;;13.27;11.25;;;28.00;90.50;;;;;;4992456;28;20054;-75
2022/08/15 11:47:31;;;;;;;12.07;10.65;;;28.10;91.20;;;;;;4992761;28;20385;-75
2022/08/15 11:50:07;;;;;;;16.42;11.38;;;28.10;91.50;;;;;;4975540;28;20058;-77
2022/08/15 11:52:45;;;;;;;13.93;10.82;;;28.20;92.60;;;;;;4992492;28;20046;-76
2022/08/15 11:55:23;;;;;;;12.95;10.68;;;28.20;91.40;;;;;;4992287;28;20053;-76
2022/08/15 11:57:54;;;;;;;13.48;11.13;;;28.20;92.50;;;;;;4992361;28;20128;-75
2022/08/15 12:00:38;;;;;;;14.57;10.73;;;28.10;91.40;;;;;;4975045;28;20049;-77
2022/08/15 12:03:23;;;;;;;12.93;10.25;;;28.10;91.60;;;;;;4992410;28;20054;-76
2022/08/15 12:05:53;;;;;;;13.48;10.07;;;28.00;91.60;;;;;;4992073;28;20081;-76
2022/08/15 12:08:26;;;;;;;11.65;9.30;;;27.90;91.40;;;;;;4992253;28;20133;-76
2022/08/15 12:11:06;;;;;;;12.88;9.10;;;28.00;92.10;;;;;;4992300;28;20042;-77
2022/08/15 12:13:32;;;;;;;10.93;9.55;;;27.90;91.90;;;;;;4992088;28;20542;-77
2022/08/15 12:15:58;;;;;;;10.52;9.43;;;27.80;91.60;;;;;;4990447;28;20395;-77
2022/08/15 12:18:24;;;;;;;18.88;10.48;;;27.80;91.80;;;;;;4992652;28;20042;-76
2022/08/15 12:20:57;;;;;;;13.30;10.32;;;27.70;91.80;;;;;;4992120;28;20050;-79
2022/08/15 12:23:30;;;;;;;21.98;10.63;;;27.80;92.20;;;;;;4992215;28;20062;-77
2022/08/15 12:25:57;;;;;;;;;;;27.70;92.00;;;;;;4992919;28;20085;-77
2022/08/15 12:28:25;;;;;;;13.02;9.05;;;27.70;93.40;;;;;;4992225;28;20016;-77
2022/08/15 12:30:55;;;;;;;8.10;7.25;;;27.70;92.20;;;;;;4992129;28;20065;-79
2022/08/15 12:33:22;;;;;;;7.75;6.95;;;27.80;91.50;;;;;;4992419;28;20121;-78
2022/08/15 12:35:48;;;;;;;7.85;6.95;;;27.90;91.10;;;;;;4992590;28;20058;-77
2022/08/15 12:38:15;;;;;;;11.15;7.43;;;28.00;91.30;;;;;;4992841;28;20076;-76
2022/08/15 12:40:41;;;;;;;9.40;8.15;;;28.00;90.90;;;;;;4978540;28;20119;-78
2022/08/15 12:43:07;;;;;;;11.13;7.82;;;28.00;90.70;;;;;;4995809;28;20046;-76
2022/08/15 12:45:33;;;;;;;8.25;7.47;;;28.00;90.60;;;;;;4995906;28;20049;-78
2022/08/15 12:47:59;;;;;;;9.23;7.05;;;28.10;90.60;;;;;;4979013;28;20054;-78
2022/08/15 12:50:25;;;;;;;8.13;7.30;;;28.20;90.80;;;;;;4995734;28;20116;-76
2022/08/15 12:52:51;;;;;;;8.43;7.18;;;28.20;90.80;;;;;;4996015;28;20054;-76
2022/08/15 12:55:17;;;;;;;7.30;6.55;;;28.40;90.60;;;;;;4995613;28;20505;-76
2022/08/15 12:57:43;;;;;;;7.22;6.45;;;28.40;90.30;;;;;;4995645;28;20047;-79
2022/08/15 13:00:10;;;;;;;12.50;8.73;;;28.50;90.20;;;;;;4995725;28;20046;-75
2022/08/15 13:02:37;;;;;;;9.85;7.60;;;28.40;90.00;;;;;;4995086;28;20057;-76
2022/08/15 13:05:07;;;;;;;8.98;8.07;;;28.50;89.80;;;;;;4995171;28;20042;-79
2022/08/15 13:07:35;;;;;;;11.38;8.20;;;28.40;89.50;;;;;;4995074;28;20043;-80
2022/08/15 13:10:01;;;;;;;11.88;9.50;;;28.30;90.10;;;;;;4995408;28;20051;-79